sensor_id;sensor_type;location;lat;lon;timestamp;temperature;humidity
61016;DHT22;46902;52.920;6.536;2023-01-09T00:01:24;7.80;99.90
61016;DHT22;46902;52.920;6.536;2023-01-09T00:03:52;7.80;99.90
61016;DHT22;46902;52.920;6.536;2023-01-09T00:06:17;7.80;99.90
61016;DHT22;46902;52.920;6.536;2023-01-09T00:08:43;7.80;99.90
61016;DHT22;46902;52.920;6.536;2023-01-09T00:11:09;7.80;99.90
61016;DHT22;46902;52.920;6.536;2023-01-09T00:13:35;7.80;99.90
61016;DHT22;46902;52.920;6.536;2023-01-09T00:16:06;7.80;99.90
61016;DHT22;46902;52.920;6.536;2023-01-09T00:18:32;7.90;99.90
61016;DHT22;46902;52.920;6.536;2023-01-09T00:21:02;7.80;99.90
61016;DHT22;46902;52.920;6.536;2023-01-09T00:23:29;7.90;99.90
61016;DHT22;46902;52.920;6.536;2023-01-09T00:26:21;7.90;99.90
61016;DHT22;46902;52.920;6.536;2023-01-09T00:28:49;7.90;99.90
61016;DHT22;46902;52.920;6.536;2023-01-09T00:31:15;7.90;99.90
61016;DHT22;46902;52.920;6.536;2023-01-09T00:36:22;7.70;99.90
61016;DHT22;46902;52.920;6.536;2023-01-09T00:38:48;7.60;99.90
61016;DHT22;46902;52.920;6.536;2023-01-09T00:41:17;7.60;99.90
61016;DHT22;46902;52.920;6.536;2023-01-09T00:43:47;7.60;99.90
61016;DHT22;46902;52.920;6.536;2023-01-09T00:46:15;7.60;99.90
61016;DHT22;46902;52.920;6.536;2023-01-09T00:48:42;7.60;99.90
61016;DHT22;46902;52.920;6.536;2023-01-09T00:51:08;7.50;99.90
61016;DHT22;46902;52.920;6.536;2023-01-09T00:53:37;7.50;99.90
61016;DHT22;46902;52.920;6.536;2023-01-09T00:56:06;7.50;99.90
61016;DHT22;46902;52.920;6.536;2023-01-09T00:58:33;7.50;99.90
61016;DHT22;46902;52.920;6.536;2023-01-09T01:01:00;7.40;99.90
61016;DHT22;46902;52.920;6.536;2023-01-09T01:03:26;7.40;99.90
61016;DHT22;46902;52.920;6.536;2023-01-09T01:05:52;7.40;99.90
61016;DHT22;46902;52.920;6.536;2023-01-09T01:08:36;7.40;99.90
61016;DHT22;46902;52.920;6.536;2023-01-09T01:11:08;7.40;99.90
61016;DHT22;46902;52.920;6.536;2023-01-09T01:13:35;7.40;99.90
61016;DHT22;46902;52.920;6.536;2023-01-09T01:16:09;7.30;99.90
61016;DHT22;46902;52.920;6.536;2023-01-09T01:18:35;7.30;99.90
61016;DHT22;46902;52.920;6.536;2023-01-09T01:21:08;7.30;99.90
61016;DHT22;46902;52.920;6.536;2023-01-09T01:23:34;7.30;99.90
61016;DHT22;46902;52.920;6.536;2023-01-09T01:26:05;7.30;99.90
61016;DHT22;46902;52.920;6.536;2023-01-09T01:28:30;7.20;99.90
61016;DHT22;46902;52.920;6.536;2023-01-09T01:30:56;7.20;99.90
61016;DHT22;46902;52.920;6.536;2023-01-09T01:33:22;7.20;99.90
61016;DHT22;46902;52.920;6.536;2023-01-09T01:35:47;7.10;99.90
61016;DHT22;46902;52.920;6.536;2023-01-09T01:38:13;7.10;99.90
61016;DHT22;46902;52.920;6.536;2023-01-09T01:40:38;7.10;99.90
61016;DHT22;46902;52.920;6.536;2023-01-09T01:43:05;7.00;99.90
61016;DHT22;46902;52.920;6.536;2023-01-09T01:45:30;7.00;99.90
61016;DHT22;46902;52.920;6.536;2023-01-09T01:48:17;7.10;99.90
61016;DHT22;46902;52.920;6.536;2023-01-09T01:51:12;7.10;99.90
61016;DHT22;46902;52.920;6.536;2023-01-09T01:53:42;7.00;99.90
61016;DHT22;46902;52.920;6.536;2023-01-09T01:56:35;7.00;99.90
61016;DHT22;46902;52.920;6.536;2023-01-09T01:59:10;7.00;99.90
61016;DHT22;46902;52.920;6.536;2023-01-09T02:01:41;7.10;99.90
61016;DHT22;46902;52.920;6.536;2023-01-09T02:04:07;7.00;99.90
61016;DHT22;46902;52.920;6.536;2023-01-09T02:06:34;7.00;99.90
61016;DHT22;46902;52.920;6.536;2023-01-09T02:09:02;7.00;99.90
61016;DHT22;46902;52.920;6.536;2023-01-09T02:11:28;7.00;99.90
61016;DHT22;46902;52.920;6.536;2023-01-09T02:13:54;7.00;99.90
61016;DHT22;46902;52.920;6.536;2023-01-09T02:16:27;6.90;99.90
61016;DHT22;46902;52.920;6.536;2023-01-09T02:19:12;6.90;99.90
61016;DHT22;46902;52.920;6.536;2023-01-09T02:22:18;6.90;99.90
61016;DHT22;46902;52.920;6.536;2023-01-09T02:30:49;6.80;99.90
61016;DHT22;46902;52.920;6.536;2023-01-09T02:41:56;6.70;99.90
61016;DHT22;46902;52.920;6.536;2023-01-09T02:44:26;6.70;99.90
61016;DHT22;46902;52.920;6.536;2023-01-09T02:47:03;6.60;99.90
61016;DHT22;46902;52.920;6.536;2023-01-09T02:49:31;6.50;99.90
61016;DHT22;46902;52.920;6.536;2023-01-09T02:55:28;6.50;99.90
61016;DHT22;46902;52.920;6.536;2023-01-09T03:01:01;6.40;99.90
61016;DHT22;46902;52.920;6.536;2023-01-09T03:06:42;6.30;99.90
61016;DHT22;46902;52.920;6.536;2023-01-09T03:09:16;6.30;99.90
61016;DHT22;46902;52.920;6.536;2023-01-09T03:11:49;6.30;99.90
61016;DHT22;46902;52.920;6.536;2023-01-09T03:14:19;6.20;99.90
61016;DHT22;46902;52.920;6.536;2023-01-09T03:16:52;6.10;99.90
61016;DHT22;46902;52.920;6.536;2023-01-09T03:19:22;6.10;99.90
61016;DHT22;46902;52.920;6.536;2023-01-09T03:21:49;6.10;99.90
61016;DHT22;46902;52.920;6.536;2023-01-09T03:24:15;6.10;99.90
61016;DHT22;46902;52.920;6.536;2023-01-09T03:26:41;6.10;99.90
61016;DHT22;46902;52.920;6.536;2023-01-09T03:29:08;6.00;99.90
61016;DHT22;46902;52.920;6.536;2023-01-09T03:31:34;6.00;99.90
61016;DHT22;46902;52.920;6.536;2023-01-09T03:33:59;6.00;99.90
61016;DHT22;46902;52.920;6.536;2023-01-09T03:36:25;5.90;99.90
61016;DHT22;46902;52.920;6.536;2023-01-09T03:38:51;5.90;99.90
61016;DHT22;46902;52.920;6.536;2023-01-09T03:41:17;5.90;99.90
61016;DHT22;46902;52.920;6.536;2023-01-09T03:43:44;5.80;99.90
61016;DHT22;46902;52.920;6.536;2023-01-09T03:46:09;5.90;99.90
61016;DHT22;46902;52.920;6.536;2023-01-09T03:48:35;5.80;99.90
61016;DHT22;46902;52.920;6.536;2023-01-09T03:51:00;5.70;99.90
61016;DHT22;46902;52.920;6.536;2023-01-09T03:53:27;5.80;99.90
61016;DHT22;46902;52.920;6.536;2023-01-09T03:55:54;5.70;99.90
61016;DHT22;46902;52.920;6.536;2023-01-09T03:58:20;5.80;99.90
61016;DHT22;46902;52.920;6.536;2023-01-09T04:00:47;5.80;99.90
61016;DHT22;46902;52.920;6.536;2023-01-09T04:03:14;5.80;99.90
61016;DHT22;46902;52.920;6.536;2023-01-09T04:05:41;5.80;99.90
61016;DHT22;46902;52.920;6.536;2023-01-09T04:08:07;5.80;99.90
61016;DHT22;46902;52.920;6.536;2023-01-09T04:10:33;5.70;99.90
61016;DHT22;46902;52.920;6.536;2023-01-09T04:12:58;5.70;99.90
61016;DHT22;46902;52.920;6.536;2023-01-09T04:15:24;5.70;99.90
61016;DHT22;46902;52.920;6.536;2023-01-09T04:17:50;5.70;99.90
61016;DHT22;46902;52.920;6.536;2023-01-09T04:20:16;5.70;99.90
61016;DHT22;46902;52.920;6.536;2023-01-09T04:22:41;5.60;99.90
61016;DHT22;46902;52.920;6.536;2023-01-09T04:25:07;5.60;99.90
61016;DHT22;46902;52.920;6.536;2023-01-09T04:27:33;5.60;99.90
61016;DHT22;46902;52.920;6.536;2023-01-09T04:29:58;5.50;99.90
61016;DHT22;46902;52.920;6.536;2023-01-09T04:32:24;5.50;99.90
61016;DHT22;46902;52.920;6.536;2023-01-09T04:34:52;5.50;99.90
61016;DHT22;46902;52.920;6.536;2023-01-09T04:37:18;5.50;99.90
61016;DHT22;46902;52.920;6.536;2023-01-09T04:39:43;5.50;99.90
61016;DHT22;46902;52.920;6.536;2023-01-09T04:42:10;5.50;99.90
61016;DHT22;46902;52.920;6.536;2023-01-09T04:44:35;5.40;99.90
61016;DHT22;46902;52.920;6.536;2023-01-09T04:47:01;5.40;99.90
61016;DHT22;46902;52.920;6.536;2023-01-09T04:49:26;5.30;99.90
61016;DHT22;46902;52.920;6.536;2023-01-09T04:51:52;5.40;99.90
61016;DHT22;46902;52.920;6.536;2023-01-09T04:54:18;5.30;99.90
61016;DHT22;46902;52.920;6.536;2023-01-09T04:56:44;5.30;99.90
61016;DHT22;46902;52.920;6.536;2023-01-09T04:59:10;5.40;99.90
61016;DHT22;46902;52.920;6.536;2023-01-09T05:01:35;5.40;99.90
61016;DHT22;46902;52.920;6.536;2023-01-09T05:04:01;5.40;99.90
61016;DHT22;46902;52.920;6.536;2023-01-09T05:06:27;5.40;99.90
61016;DHT22;46902;52.920;6.536;2023-01-09T05:08:53;5.40;99.90
61016;DHT22;46902;52.920;6.536;2023-01-09T05:11:18;5.40;99.90
61016;DHT22;46902;52.920;6.536;2023-01-09T05:13:44;5.50;99.90
61016;DHT22;46902;52.920;6.536;2023-01-09T05:16:10;5.50;99.90
61016;DHT22;46902;52.920;6.536;2023-01-09T05:18:35;5.50;99.90
61016;DHT22;46902;52.920;6.536;2023-01-09T05:21:01;5.50;99.90
61016;DHT22;46902;52.920;6.536;2023-01-09T05:23:27;5.50;99.90
61016;DHT22;46902;52.920;6.536;2023-01-09T05:25:52;5.40;99.90
61016;DHT22;46902;52.920;6.536;2023-01-09T05:28:18;5.40;99.90
61016;DHT22;46902;52.920;6.536;2023-01-09T05:30:43;5.50;99.90
61016;DHT22;46902;52.920;6.536;2023-01-09T05:33:09;5.50;99.90
61016;DHT22;46902;52.920;6.536;2023-01-09T05:35:34;5.50;99.90
61016;DHT22;46902;52.920;6.536;2023-01-09T05:38:00;5.50;99.90
61016;DHT22;46902;52.920;6.536;2023-01-09T05:40:26;5.50;99.90
61016;DHT22;46902;52.920;6.536;2023-01-09T05:42:51;5.40;99.90
61016;DHT22;46902;52.920;6.536;2023-01-09T05:45:17;5.40;99.90
61016;DHT22;46902;52.920;6.536;2023-01-09T05:47:43;5.40;99.90
61016;DHT22;46902;52.920;6.536;2023-01-09T05:50:10;5.40;99.90
61016;DHT22;46902;52.920;6.536;2023-01-09T05:52:36;5.40;99.90
61016;DHT22;46902;52.920;6.536;2023-01-09T05:55:01;5.40;99.90
61016;DHT22;46902;52.920;6.536;2023-01-09T05:57:27;5.30;99.90
61016;DHT22;46902;52.920;6.536;2023-01-09T05:59:53;5.30;99.90
61016;DHT22;46902;52.920;6.536;2023-01-09T06:02:19;5.40;99.90
61016;DHT22;46902;52.920;6.536;2023-01-09T06:04:44;5.30;99.90
61016;DHT22;46902;52.920;6.536;2023-01-09T06:07:10;5.40;99.90
61016;DHT22;46902;52.920;6.536;2023-01-09T06:09:36;5.40;99.90
61016;DHT22;46902;52.920;6.536;2023-01-09T06:12:01;5.40;99.90
61016;DHT22;46902;52.920;6.536;2023-01-09T06:14:27;5.40;99.90
61016;DHT22;46902;52.920;6.536;2023-01-09T06:16:54;5.50;99.90
61016;DHT22;46902;52.920;6.536;2023-01-09T06:19:19;5.50;99.90
61016;DHT22;46902;52.920;6.536;2023-01-09T06:21:45;5.50;99.90
61016;DHT22;46902;52.920;6.536;2023-01-09T06:24:11;5.50;99.90
61016;DHT22;46902;52.920;6.536;2023-01-09T06:26:36;5.60;99.90
61016;DHT22;46902;52.920;6.536;2023-01-09T06:29:02;5.50;99.90
61016;DHT22;46902;52.920;6.536;2023-01-09T06:31:27;5.50;99.90
61016;DHT22;46902;52.920;6.536;2023-01-09T06:33:53;5.60;99.90
61016;DHT22;46902;52.920;6.536;2023-01-09T06:36:19;5.60;99.90
61016;DHT22;46902;52.920;6.536;2023-01-09T06:38:44;5.60;99.90
61016;DHT22;46902;52.920;6.536;2023-01-09T06:41:10;5.50;99.90
61016;DHT22;46902;52.920;6.536;2023-01-09T06:43:36;5.50;99.90
61016;DHT22;46902;52.920;6.536;2023-01-09T06:46:02;5.50;99.90
61016;DHT22;46902;52.920;6.536;2023-01-09T06:48:30;5.50;99.90
61016;DHT22;46902;52.920;6.536;2023-01-09T06:50:56;5.50;99.90
61016;DHT22;46902;52.920;6.536;2023-01-09T06:53:21;5.40;99.90
61016;DHT22;46902;52.920;6.536;2023-01-09T06:55:47;5.40;99.90
61016;DHT22;46902;52.920;6.536;2023-01-09T06:58:13;5.40;99.90
61016;DHT22;46902;52.920;6.536;2023-01-09T07:00:38;5.40;99.90
61016;DHT22;46902;52.920;6.536;2023-01-09T07:03:04;5.40;99.90
61016;DHT22;46902;52.920;6.536;2023-01-09T07:05:30;5.30;99.90
61016;DHT22;46902;52.920;6.536;2023-01-09T07:07:57;5.30;99.90
61016;DHT22;46902;52.920;6.536;2023-01-09T07:10:23;5.30;99.90
61016;DHT22;46902;52.920;6.536;2023-01-09T07:12:48;5.20;99.90
61016;DHT22;46902;52.920;6.536;2023-01-09T07:15:14;5.30;99.90
61016;DHT22;46902;52.920;6.536;2023-01-09T07:17:39;5.30;99.90
61016;DHT22;46902;52.920;6.536;2023-01-09T07:20:06;5.30;99.90
61016;DHT22;46902;52.920;6.536;2023-01-09T07:22:32;5.30;99.90
61016;DHT22;46902;52.920;6.536;2023-01-09T07:24:58;5.30;99.90
61016;DHT22;46902;52.920;6.536;2023-01-09T07:27:23;5.30;99.90
61016;DHT22;46902;52.920;6.536;2023-01-09T07:29:49;5.30;99.90
61016;DHT22;46902;52.920;6.536;2023-01-09T07:32:16;5.40;99.90
61016;DHT22;46902;52.920;6.536;2023-01-09T07:34:41;5.40;99.90
61016;DHT22;46902;52.920;6.536;2023-01-09T07:37:07;5.40;99.90
61016;DHT22;46902;52.920;6.536;2023-01-09T07:39:32;5.40;99.90
61016;DHT22;46902;52.920;6.536;2023-01-09T07:41:58;5.50;99.90
61016;DHT22;46902;52.920;6.536;2023-01-09T07:44:24;5.50;99.90
61016;DHT22;46902;52.920;6.536;2023-01-09T07:46:49;5.50;99.90
61016;DHT22;46902;52.920;6.536;2023-01-09T07:49:15;5.50;99.90
61016;DHT22;46902;52.920;6.536;2023-01-09T07:51:40;5.50;99.90
61016;DHT22;46902;52.920;6.536;2023-01-09T07:54:08;5.60;99.90
61016;DHT22;46902;52.920;6.536;2023-01-09T07:56:34;5.60;99.90
61016;DHT22;46902;52.920;6.536;2023-01-09T07:59:00;5.60;99.90
61016;DHT22;46902;52.920;6.536;2023-01-09T08:01:25;5.60;99.90
61016;DHT22;46902;52.920;6.536;2023-01-09T08:03:51;5.60;99.90
61016;DHT22;46902;52.920;6.536;2023-01-09T08:06:17;5.60;99.90
61016;DHT22;46902;52.920;6.536;2023-01-09T08:08:42;5.60;99.90
61016;DHT22;46902;52.920;6.536;2023-01-09T08:11:08;5.60;99.90
61016;DHT22;46902;52.920;6.536;2023-01-09T08:13:34;5.60;99.90
61016;DHT22;46902;52.920;6.536;2023-01-09T08:15:59;5.70;99.90
61016;DHT22;46902;52.920;6.536;2023-01-09T08:18:25;5.70;99.90
61016;DHT22;46902;52.920;6.536;2023-01-09T08:20:50;5.70;99.90
61016;DHT22;46902;52.920;6.536;2023-01-09T08:23:16;5.70;99.90
61016;DHT22;46902;52.920;6.536;2023-01-09T08:25:41;5.60;99.90
61016;DHT22;46902;52.920;6.536;2023-01-09T08:28:07;5.60;99.90
61016;DHT22;46902;52.920;6.536;2023-01-09T08:30:34;5.60;99.90
61016;DHT22;46902;52.920;6.536;2023-01-09T08:33:00;5.60;99.90
61016;DHT22;46902;52.920;6.536;2023-01-09T08:35:25;5.60;99.90
61016;DHT22;46902;52.920;6.536;2023-01-09T08:37:51;5.60;99.90
61016;DHT22;46902;52.920;6.536;2023-01-09T08:40:17;5.70;99.90
61016;DHT22;46902;52.920;6.536;2023-01-09T08:42:42;5.70;99.90
61016;DHT22;46902;52.920;6.536;2023-01-09T08:45:27;5.60;99.90
61016;DHT22;46902;52.920;6.536;2023-01-09T08:48:25;5.70;99.90
61016;DHT22;46902;52.920;6.536;2023-01-09T08:50:50;5.70;99.90
61016;DHT22;46902;52.920;6.536;2023-01-09T08:53:18;5.70;99.90
61016;DHT22;46902;52.920;6.536;2023-01-09T08:55:44;5.80;99.90
61016;DHT22;46902;52.920;6.536;2023-01-09T08:58:10;5.80;99.90
61016;DHT22;46902;52.920;6.536;2023-01-09T09:00:35;5.80;99.90
61016;DHT22;46902;52.920;6.536;2023-01-09T09:03:01;5.80;99.90
61016;DHT22;46902;52.920;6.536;2023-01-09T09:05:28;5.90;99.90
61016;DHT22;46902;52.920;6.536;2023-01-09T09:07:55;5.90;99.90
61016;DHT22;46902;52.920;6.536;2023-01-09T09:10:26;5.90;99.90
61016;DHT22;46902;52.920;6.536;2023-01-09T09:12:53;6.00;99.90
61016;DHT22;46902;52.920;6.536;2023-01-09T09:15:19;6.00;99.90
61016;DHT22;46902;52.920;6.536;2023-01-09T09:17:52;6.10;99.90
61016;DHT22;46902;52.920;6.536;2023-01-09T09:20:19;6.10;99.90
61016;DHT22;46902;52.920;6.536;2023-01-09T09:22:46;6.10;99.90
61016;DHT22;46902;52.920;6.536;2023-01-09T09:25:12;6.10;99.90
61016;DHT22;46902;52.920;6.536;2023-01-09T09:27:38;6.20;99.90
61016;DHT22;46902;52.920;6.536;2023-01-09T09:30:05;6.20;99.90
61016;DHT22;46902;52.920;6.536;2023-01-09T09:32:31;6.30;99.90
61016;DHT22;46902;52.920;6.536;2023-01-09T09:34:56;6.30;99.90
61016;DHT22;46902;52.920;6.536;2023-01-09T09:37:23;6.30;99.90
61016;DHT22;46902;52.920;6.536;2023-01-09T09:39:48;6.40;99.90
61016;DHT22;46902;52.920;6.536;2023-01-09T09:42:42;6.40;99.90
61016;DHT22;46902;52.920;6.536;2023-01-09T09:45:46;6.50;99.90
61016;DHT22;46902;52.920;6.536;2023-01-09T09:55:56;6.60;99.90
61016;DHT22;46902;52.920;6.536;2023-01-09T09:58:40;6.50;99.90
61016;DHT22;46902;52.920;6.536;2023-01-09T10:01:07;6.60;99.90
61016;DHT22;46902;52.920;6.536;2023-01-09T10:06:30;6.60;99.90
61016;DHT22;46902;52.920;6.536;2023-01-09T10:11:38;6.60;99.90
61016;DHT22;46902;52.920;6.536;2023-01-09T10:14:06;6.60;99.90
61016;DHT22;46902;52.920;6.536;2023-01-09T10:26:57;6.60;99.90
61016;DHT22;46902;52.920;6.536;2023-01-09T10:29:35;6.70;99.90
61016;DHT22;46902;52.920;6.536;2023-01-09T10:34:52;6.70;99.90
61016;DHT22;46902;52.920;6.536;2023-01-09T10:37:25;6.70;99.90
61016;DHT22;46902;52.920;6.536;2023-01-09T10:39:58;6.70;99.90
61016;DHT22;46902;52.920;6.536;2023-01-09T10:42:31;6.70;99.90
61016;DHT22;46902;52.920;6.536;2023-01-09T10:45:35;6.70;99.90
61016;DHT22;46902;52.920;6.536;2023-01-09T10:48:17;6.70;99.90
61016;DHT22;46902;52.920;6.536;2023-01-09T10:50:47;6.70;99.90
61016;DHT22;46902;52.920;6.536;2023-01-09T10:53:26;6.80;99.90
61016;DHT22;46902;52.920;6.536;2023-01-09T10:55:55;6.80;99.90
61016;DHT22;46902;52.920;6.536;2023-01-09T10:58:24;6.90;99.90
61016;DHT22;46902;52.920;6.536;2023-01-09T11:00:50;6.90;99.90
61016;DHT22;46902;52.920;6.536;2023-01-09T11:03:20;6.90;99.90
61016;DHT22;46902;52.920;6.536;2023-01-09T11:05:50;6.90;99.90
61016;DHT22;46902;52.920;6.536;2023-01-09T11:10:58;6.90;99.90
61016;DHT22;46902;52.920;6.536;2023-01-09T11:13:29;6.80;99.90
61016;DHT22;46902;52.920;6.536;2023-01-09T11:16:20;6.80;99.90
61016;DHT22;46902;52.920;6.536;2023-01-09T11:18:53;6.80;99.90
61016;DHT22;46902;52.920;6.536;2023-01-09T11:21:39;6.80;99.90
61016;DHT22;46902;52.920;6.536;2023-01-09T11:26:45;6.90;99.90
61016;DHT22;46902;52.920;6.536;2023-01-09T11:29:21;6.90;99.90
61016;DHT22;46902;52.920;6.536;2023-01-09T11:31:57;6.90;99.90
61016;DHT22;46902;52.920;6.536;2023-01-09T11:34:29;6.80;99.90
61016;DHT22;46902;52.920;6.536;2023-01-09T11:37:06;6.90;99.90
61016;DHT22;46902;52.920;6.536;2023-01-09T11:39:34;6.90;99.90
61016;DHT22;46902;52.920;6.536;2023-01-09T11:42:05;6.90;99.90
61016;DHT22;46902;52.920;6.536;2023-01-09T11:44:33;7.00;99.90
61016;DHT22;46902;52.920;6.536;2023-01-09T11:46:59;7.00;99.90
61016;DHT22;46902;52.920;6.536;2023-01-09T11:49:27;7.00;99.90
61016;DHT22;46902;52.920;6.536;2023-01-09T11:52:16;7.00;99.90
61016;DHT22;46902;52.920;6.536;2023-01-09T11:54:53;7.10;99.90
61016;DHT22;46902;52.920;6.536;2023-01-09T11:57:21;7.10;99.90
61016;DHT22;46902;52.920;6.536;2023-01-09T11:59:47;7.10;99.90
61016;DHT22;46902;52.920;6.536;2023-01-09T12:05:18;7.20;99.90
61016;DHT22;46902;52.920;6.536;2023-01-09T12:08:04;7.20;99.90
61016;DHT22;46902;52.920;6.536;2023-01-09T12:10:40;7.30;99.90
61016;DHT22;46902;52.920;6.536;2023-01-09T12:13:36;7.30;99.90
61016;DHT22;46902;52.920;6.536;2023-01-09T12:22:30;7.50;99.90
61016;DHT22;46902;52.920;6.536;2023-01-09T12:25:25;7.50;99.90
61016;DHT22;46902;52.920;6.536;2023-01-09T12:30:53;7.50;99.90
61016;DHT22;46902;52.920;6.536;2023-01-09T12:36:35;7.50;99.90
61016;DHT22;46902;52.920;6.536;2023-01-09T12:39:34;7.50;99.90
61016;DHT22;46902;52.920;6.536;2023-01-09T12:42:05;7.60;99.90
61016;DHT22;46902;52.920;6.536;2023-01-09T12:44:51;7.60;99.90
61016;DHT22;46902;52.920;6.536;2023-01-09T12:50:15;7.60;99.90
61016;DHT22;46902;52.920;6.536;2023-01-09T12:53:16;7.60;99.90
61016;DHT22;46902;52.920;6.536;2023-01-09T12:55:42;7.50;99.90
61016;DHT22;46902;52.920;6.536;2023-01-09T12:58:30;7.60;99.90
61016;DHT22;46902;52.920;6.536;2023-01-09T13:00:59;7.60;99.90
61016;DHT22;46902;52.920;6.536;2023-01-09T13:03:37;7.60;99.90
61016;DHT22;46902;52.920;6.536;2023-01-09T13:06:09;7.60;99.90
61016;DHT22;46902;52.920;6.536;2023-01-09T13:08:43;7.60;99.90
61016;DHT22;46902;52.920;6.536;2023-01-09T13:11:15;7.60;99.90
61016;DHT22;46902;52.920;6.536;2023-01-09T13:13:57;7.60;99.90
61016;DHT22;46902;52.920;6.536;2023-01-09T13:16:38;7.60;99.90
61016;DHT22;46902;52.920;6.536;2023-01-09T13:19:17;7.60;99.90
61016;DHT22;46902;52.920;6.536;2023-01-09T13:21:45;7.60;99.90
61016;DHT22;46902;52.920;6.536;2023-01-09T13:24:23;7.70;99.90
61016;DHT22;46902;52.920;6.536;2023-01-09T13:26:57;7.70;99.90
61016;DHT22;46902;52.920;6.536;2023-01-09T13:29:49;7.70;99.90
61016;DHT22;46902;52.920;6.536;2023-01-09T13:32:45;7.70;99.90
61016;DHT22;46902;52.920;6.536;2023-01-09T13:35:15;7.70;99.90
61016;DHT22;46902;52.920;6.536;2023-01-09T13:37:42;7.70;99.90
61016;DHT22;46902;52.920;6.536;2023-01-09T13:43:05;7.80;99.90
61016;DHT22;46902;52.920;6.536;2023-01-09T13:45:35;7.80;99.90
61016;DHT22;46902;52.920;6.536;2023-01-09T13:50:34;7.80;99.90
61016;DHT22;46902;52.920;6.536;2023-01-09T13:58:27;8.00;99.90
61016;DHT22;46902;52.920;6.536;2023-01-09T14:00:59;8.00;99.90
61016;DHT22;46902;52.920;6.536;2023-01-09T14:03:34;8.10;99.90
61016;DHT22;46902;52.920;6.536;2023-01-09T14:06:11;8.00;99.90
61016;DHT22;46902;52.920;6.536;2023-01-09T14:08:39;8.00;99.90
61016;DHT22;46902;52.920;6.536;2023-01-09T14:11:06;8.00;99.90
61016;DHT22;46902;52.920;6.536;2023-01-09T14:13:42;8.00;99.90
61016;DHT22;46902;52.920;6.536;2023-01-09T14:16:18;8.00;99.90
61016;DHT22;46902;52.920;6.536;2023-01-09T14:21:54;7.90;99.90
61016;DHT22;46902;52.920;6.536;2023-01-09T14:26:56;7.90;99.90
61016;DHT22;46902;52.920;6.536;2023-01-09T14:34:56;7.90;99.90
61016;DHT22;46902;52.920;6.536;2023-01-09T14:37:22;7.90;99.90
61016;DHT22;46902;52.920;6.536;2023-01-09T14:39:50;7.90;99.90
61016;DHT22;46902;52.920;6.536;2023-01-09T14:42:20;8.10;99.90
61016;DHT22;46902;52.920;6.536;2023-01-09T14:45:21;8.20;99.90
61016;DHT22;46902;52.920;6.536;2023-01-09T14:48:03;8.30;99.90
61016;DHT22;46902;52.920;6.536;2023-01-09T14:50:34;8.30;99.90
61016;DHT22;46902;52.920;6.536;2023-01-09T14:53:10;8.20;99.90
61016;DHT22;46902;52.920;6.536;2023-01-09T14:58:33;8.20;99.90
61016;DHT22;46902;52.920;6.536;2023-01-09T15:03:56;8.10;99.90
61016;DHT22;46902;52.920;6.536;2023-01-09T15:06:28;8.20;99.90
61016;DHT22;46902;52.920;6.536;2023-01-09T15:09:18;8.10;99.90
61016;DHT22;46902;52.920;6.536;2023-01-09T15:11:45;8.10;99.90
61016;DHT22;46902;52.920;6.536;2023-01-09T15:16:59;8.10;99.90
61016;DHT22;46902;52.920;6.536;2023-01-09T15:19:24;8.10;99.90
61016;DHT22;46902;52.920;6.536;2023-01-09T15:22:00;8.10;99.90
61016;DHT22;46902;52.920;6.536;2023-01-09T15:24:28;8.10;99.90
61016;DHT22;46902;52.920;6.536;2023-01-09T15:26:58;8.10;99.90
61016;DHT22;46902;52.920;6.536;2023-01-09T15:29:25;8.10;99.90
61016;DHT22;46902;52.920;6.536;2023-01-09T15:32:07;8.10;99.90
61016;DHT22;46902;52.920;6.536;2023-01-09T15:34:35;8.10;99.90
61016;DHT22;46902;52.920;6.536;2023-01-09T15:37:01;8.00;99.90
61016;DHT22;46902;52.920;6.536;2023-01-09T15:39:31;8.00;99.90
61016;DHT22;46902;52.920;6.536;2023-01-09T15:41:59;8.00;99.90
61016;DHT22;46902;52.920;6.536;2023-01-09T15:44:46;8.00;99.90
61016;DHT22;46902;52.920;6.536;2023-01-09T15:47:16;8.00;99.90
61016;DHT22;46902;52.920;6.536;2023-01-09T15:49:45;8.00;99.90
61016;DHT22;46902;52.920;6.536;2023-01-09T15:52:14;7.90;99.90
61016;DHT22;46902;52.920;6.536;2023-01-09T15:54:43;7.90;99.90
61016;DHT22;46902;52.920;6.536;2023-01-09T15:59:54;7.90;99.90
61016;DHT22;46902;52.920;6.536;2023-01-09T16:02:22;7.80;99.90
61016;DHT22;46902;52.920;6.536;2023-01-09T16:05:11;7.80;99.90
61016;DHT22;46902;52.920;6.536;2023-01-09T16:07:44;7.80;99.90
61016;DHT22;46902;52.920;6.536;2023-01-09T16:10:21;7.70;99.90
61016;DHT22;46902;52.920;6.536;2023-01-09T16:12:47;7.70;99.90
61016;DHT22;46902;52.920;6.536;2023-01-09T16:15:17;7.70;99.90
61016;DHT22;46902;52.920;6.536;2023-01-09T16:18:03;7.70;99.90
61016;DHT22;46902;52.920;6.536;2023-01-09T16:20:29;7.70;99.90
61016;DHT22;46902;52.920;6.536;2023-01-09T16:22:55;7.60;99.90
61016;DHT22;46902;52.920;6.536;2023-01-09T16:25:31;7.60;99.90
61016;DHT22;46902;52.920;6.536;2023-01-09T16:28:18;7.60;99.90
61016;DHT22;46902;52.920;6.536;2023-01-09T16:30:57;7.60;99.90
61016;DHT22;46902;52.920;6.536;2023-01-09T16:33:25;7.60;99.90
61016;DHT22;46902;52.920;6.536;2023-01-09T16:35:52;7.50;99.90
61016;DHT22;46902;52.920;6.536;2023-01-09T16:38:18;7.50;99.90
61016;DHT22;46902;52.920;6.536;2023-01-09T16:41:18;7.60;99.90
61016;DHT22;46902;52.920;6.536;2023-01-09T16:44:19;7.50;99.90
61016;DHT22;46902;52.920;6.536;2023-01-09T16:46:44;7.50;99.90
61016;DHT22;46902;52.920;6.536;2023-01-09T16:49:19;7.50;99.90
61016;DHT22;46902;52.920;6.536;2023-01-09T16:51:45;7.50;99.90
61016;DHT22;46902;52.920;6.536;2023-01-09T16:54:11;7.50;99.90
61016;DHT22;46902;52.920;6.536;2023-01-09T16:56:37;7.40;99.90
61016;DHT22;46902;52.920;6.536;2023-01-09T16:59:03;7.40;99.90
61016;DHT22;46902;52.920;6.536;2023-01-09T17:01:29;7.40;99.90
61016;DHT22;46902;52.920;6.536;2023-01-09T17:03:55;7.40;99.90
61016;DHT22;46902;52.920;6.536;2023-01-09T17:06:25;7.40;99.90
61016;DHT22;46902;52.920;6.536;2023-01-09T17:08:52;7.40;99.90
61016;DHT22;46902;52.920;6.536;2023-01-09T17:11:23;7.40;99.90
61016;DHT22;46902;52.920;6.536;2023-01-09T17:13:49;7.40;99.90
61016;DHT22;46902;52.920;6.536;2023-01-09T17:16:16;7.30;99.90
61016;DHT22;46902;52.920;6.536;2023-01-09T17:18:43;7.30;99.90
61016;DHT22;46902;52.920;6.536;2023-01-09T17:21:23;7.30;99.90
61016;DHT22;46902;52.920;6.536;2023-01-09T17:23:49;7.30;99.90
61016;DHT22;46902;52.920;6.536;2023-01-09T17:26:37;7.20;99.90
61016;DHT22;46902;52.920;6.536;2023-01-09T17:29:21;7.20;99.90
61016;DHT22;46902;52.920;6.536;2023-01-09T17:31:47;7.10;99.90
61016;DHT22;46902;52.920;6.536;2023-01-09T17:34:12;7.10;99.90
61016;DHT22;46902;52.920;6.536;2023-01-09T17:36:38;7.10;99.90
61016;DHT22;46902;52.920;6.536;2023-01-09T17:39:03;7.00;99.90
61016;DHT22;46902;52.920;6.536;2023-01-09T17:41:30;7.00;99.90
61016;DHT22;46902;52.920;6.536;2023-01-09T17:43:57;7.00;99.90
61016;DHT22;46902;52.920;6.536;2023-01-09T17:46:29;7.00;99.90
61016;DHT22;46902;52.920;6.536;2023-01-09T17:48:56;6.90;99.90
61016;DHT22;46902;52.920;6.536;2023-01-09T17:51:22;6.90;99.90
61016;DHT22;46902;52.920;6.536;2023-01-09T17:53:48;6.90;99.90